Orchid Ace — 7JDE — position and weather

sailwx.info

Track history (hours):
 
Tides and Currents Weather Stations Pressure Air Temp Water Temp Dewpoint Dewpoint Depression Visibility Wind Speed Wind Dir Waves Ship Positions

Orchid Ace

Last reported at 2016-Apr-27 00:33 UTC. Time now 2016-May-01 13:38 UTC.
Position S 29°43' E 031°18'.

Length 200 m; draft 8 m.

Type: Cargo ship. MMSI: 432651000.

Date/timePositionNaut miles runAvg speedWind from/ knotsBaromVisibWave heightAir tempDewpointWater temp
2016-Apr-27 00:33S 29°43' E 031°18'1413.5
2016-Apr-26 23:33S 29°51' E 031°06'4 3.4
2016-Apr-26 22:30S 29°52' E 031°02'0 0.0
2016-Apr-26 21:30S 29°52' E 031°02'0 0.0
2016-Apr-26 20:30S 29°52' E 031°02'0 0.0
2016-Apr-26 19:30S 29°52' E 031°02'0 0.0
2016-Apr-26 18:30S 29°52' E 031°02'0 0.0
2016-Apr-26 17:30S 29°52' E 031°02'0 0.0
2016-Apr-26 16:24S 29°52' E 031°02'0 0.0
2016-Apr-26 15:30S 29°52' E 031°02'0 0.0
2016-Apr-26 14:33S 29°52' E 031°02'2 2.4
2016-Apr-26 13:33S 29°51' E 031°04'2 1.8
2016-Apr-26 12:33S 29°50' E 031°06'1 0.8
2016-Apr-26 11:33S 29°49' E 031°07'4 3.5
2016-Apr-26 10:33S 29°50' E 031°11'6 5.7
2016-Apr-26 09:33S 29°55' E 031°10'10 9.6
2016-Apr-26 08:33S 30°05' E 031°07'  
Track history (hours):
 
Tides and Currents Weather Stations Pressure Air Temp Water Temp Dewpoint Dewpoint Depression Visibility Wind Speed Wind Dir Waves Ship Positions

Orchid Ace

Last reported at 2016-Apr-27 00:33 UTC. Time now 2016-May-01 13:38 UTC.
Position S 29°43' E 031°18'.

Length 200 m; draft 8 m.

Type: Cargo ship. MMSI: 432651000.

Date/timePositionNaut miles runAvg speedWind from/ knotsBaromVisibWave heightAir tempDewpointWater temp
2016-Apr-27 00:33S 29°43' E 031°18'1413.5
2016-Apr-26 23:33S 29°51' E 031°06'4 3.4
2016-Apr-26 22:30S 29°52' E 031°02'0 0.0
2016-Apr-26 21:30S 29°52' E 031°02'0 0.0
2016-Apr-26 20:30S 29°52' E 031°02'0 0.0
2016-Apr-26 19:30S 29°52' E 031°02'0 0.0
2016-Apr-26 18:30S 29°52' E 031°02'0 0.0
2016-Apr-26 17:30S 29°52' E 031°02'0 0.0
2016-Apr-26 16:24S 29°52' E 031°02'0 0.0
2016-Apr-26 15:30S 29°52' E 031°02'0 0.0
2016-Apr-26 14:33S 29°52' E 031°02'2 2.4
2016-Apr-26 13:33S 29°51' E 031°04'2 1.8
2016-Apr-26 12:33S 29°50' E 031°06'1 0.8
2016-Apr-26 11:33S 29°49' E 031°07'4 3.5
2016-Apr-26 10:33S 29°50' E 031°11'6 5.7
2016-Apr-26 09:33S 29°55' E 031°10'10 9.6
2016-Apr-26 08:33S 30°05' E 031°07'  

Dump ship's entire track history